Time;durP1;ratioP1;P1;durP2;ratioP2;P2;SDS_P1;SDS_P2;PMS_P1;PMS_P2;Temp;Humidity;BMP_temperature;BMP_pressure;BME280_temperature;BME280_humidity;BME280_pressure;Samples;Min_cycle;Max_cycle;Signal;HPM_P1;HPM_P2
2022/03/25 00:00:13;;;;;;;71.92;30.43;;;;;;;6.12;37.75;101888.06;1749725;79;29623;-61
2022/03/25 00:02:41;;;;;;;69.72;30.10;;;;;;;6.06;37.78;101882.77;1747838;79;98846;-61
2022/03/25 00:05:08;;;;;;;72.10;29.50;;;;;;;6.06;37.80;101886.76;1781535;78;25873;-62
2022/03/25 00:07:34;;;;;;;68.52;28.25;;;;;;;6.03;37.84;101893.42;1780414;78;26355;-62
2022/03/25 00:10:02;;;;;;;61.37;27.10;;;;;;;5.99;37.88;101893.45;1784150;78;98573;-62
2022/03/25 00:12:28;;;;;;;70.30;27.30;;;;;;;5.95;37.98;101887.25;1777256;78;27491;-61
2022/03/25 00:14:54;;;;;;;64.47;27.32;;;;;;;5.93;37.99;101893.03;1774765;78;98754;-61
2022/03/25 00:17:19;;;;;;;65.60;27.35;;;;;;;5.89;38.04;101889.94;1778089;78;27561;-62
2022/03/25 00:19:45;;;;;;;67.50;27.13;;;;;;;5.85;38.08;101885.05;1771937;78;99013;-62
2022/03/25 00:22:11;;;;;;;69.65;27.90;;;;;;;5.84;38.18;101887.71;1781538;78;25993;-62
2022/03/25 00:24:37;;;;;;;67.15;26.57;;;;;;;5.82;38.20;101881.52;1750710;79;27408;-62
2022/03/25 00:27:04;;;;;;;62.30;27.00;;;;;;;5.80;38.23;101881.96;1780064;78;98805;-60
2022/03/25 00:29:30;;;;;;;77.05;27.52;;;;;;;5.78;38.23;101886.41;1781368;78;25764;-61
2022/03/25 00:31:58;;;;;;;71.67;26.40;;;;;;;5.73;38.32;101878.44;1758006;79;98889;-62
2022/03/25 00:34:24;;;;;;;58.28;25.60;;;;;;;5.71;38.40;101876.67;1769280;78;25827;-61
2022/03/25 00:36:50;;;;;;;61.08;25.62;;;;;;;5.67;38.43;101878.47;1784537;78;29572;-61
2022/03/25 00:39:15;;;;;;;69.70;27.00;;;;;;;5.66;38.49;101877.14;1775143;78;98611;-61
2022/03/25 00:41:44;;;;;;;72.32;27.60;;;;;;;5.64;38.52;101872.27;1789388;77;30204;-62
2022/03/25 00:44:09;;;;;;;63.92;26.75;;;;;;;5.58;38.59;101879.83;1787745;78;98944;-61
2022/03/25 00:46:36;;;;;;;61.48;26.68;;;;;;;5.53;38.64;101873.19;1792542;78;25973;-61
2022/03/25 00:49:04;;;;;;;63.63;27.85;;;;;;;5.50;38.70;101872.31;1784203;78;27352;-63
2022/03/25 00:51:30;;;;;;;64.32;26.97;;;;;;;5.46;38.77;101868.78;1773807;79;98682;-61
2022/03/25 00:53:56;;;;;;;67.87;25.70;;;;;;;5.42;38.81;101869.67;1784189;78;26786;-61
2022/03/25 00:56:24;;;;;;;73.60;28.80;;;;;;;5.39;38.91;101864.36;1778754;78;98954;-61
2022/03/25 00:58:51;;;;;;;56.00;25.72;;;;;;;5.37;38.95;101867.47;1775075;78;25769;-62
2022/03/25 01:01:17;;;;;;;66.45;26.82;;;;;;;5.38;38.91;101868.36;1788316;78;27385;-61
2022/03/25 01:03:43;;;;;;;82.55;28.83;;;;;;;5.37;39.01;101871.46;1775400;79;98735;-61
2022/03/25 01:06:10;;;;;;;62.73;26.57;;;;;;;5.36;39.04;101871.47;1785445;78;25773;-61
2022/03/25 01:08:36;;;;;;;76.25;29.48;;;;;;;5.34;39.11;101872.80;1765087;80;98672;-63
2022/03/25 01:11:06;;;;;;;70.92;29.50;;;;;;;5.33;39.25;101871.03;1783595;78;25963;-62
2022/03/25 01:13:33;;;;;;;76.85;30.85;;;;;;;5.30;39.29;101867.05;1777390;78;28279;-62
2022/03/25 01:16:07;;;;;;;80.77;31.75;;;;;;;5.28;39.41;101866.61;1790358;78;98646;-62
2022/03/25 01:18:33;;;;;;;72.30;30.88;;;;;;;5.24;39.41;101864.41;1781212;78;25952;-63
2022/03/25 01:21:01;;;;;;;71.87;29.37;;;;;;;5.19;39.50;101861.78;1783078;78;98709;-62
2022/03/25 01:23:27;;;;;;;64.20;29.18;;;;;;;5.17;39.62;101854.26;1780665;78;25758;-62
2022/03/25 01:25:53;;;;;;;69.22;29.27;;;;;;;5.13;39.82;101861.80;1771755;78;98795;-62
2022/03/25 01:28:20;;;;;;;76.53;30.90;;;;;;;5.10;39.92;101863.57;1749868;79;27078;-60
2022/03/25 01:30:46;;;;;;;86.95;30.75;;;;;;;5.05;39.98;101862.25;1783118;78;25719;-63
2022/03/25 01:33:13;;;;;;;76.65;31.45;;;;;;;5.00;40.13;101861.81;1776215;78;98639;-61
2022/03/25 01:35:41;;;;;;;80.60;30.72;;;;;;;4.95;40.24;101858.28;1771301;78;25754;-62
2022/03/25 01:38:08;;;;;;;74.22;31.35;;;;;;;4.91;40.40;101856.06;1777411;78;98912;-62
2022/03/25 01:40:34;;;;;;;80.00;32.08;;;;;;;4.86;40.51;101857.39;1777242;78;25799;-62
2022/03/25 01:43:00;;;;;;;84.00;33.18;;;;;;;4.83;40.69;101860.50;1784748;78;25803;-62
2022/03/25 01:45:34;;;;;;;74.00;31.85;;;;;;;4.78;40.94;101864.92;1784466;78;98821;-62
2022/03/25 01:48:03;;;;;;;87.47;34.80;;;;;;;4.72;41.08;101865.81;1777672;78;25750;-60
2022/03/25 01:50:28;;;;;;;80.65;34.60;;;;;;;4.70;41.25;101856.07;1768559;78;98817;-63
2022/03/25 01:52:54;;;;;;;81.67;33.23;;;;;;;4.67;41.28;101858.28;1744545;80;33296;-61
2022/03/25 01:55:27;;;;;;;84.28;32.80;;;;;;;4.65;41.34;101855.19;1741997;80;25834;-61
2022/03/25 01:57:58;;;;;;;83.07;32.88;;;;;;;4.60;41.44;101855.19;1739408;80;98720;-61
2022/03/25 02:00:28;;;;;;;75.35;32.73;;;;;;;4.57;41.42;101856.51;1734505;80;25760;-63
2022/03/25 02:02:54;;;;;;;82.70;33.88;;;;;;;4.53;41.52;101859.61;1746020;80;98647;-61
2022/03/25 02:05:20;;;;;;;88.33;34.67;;;;;;;4.49;41.51;101859.60;1748661;80;25800;-61
2022/03/25 02:07:47;;;;;;;87.53;35.03;;;;;;;4.47;41.69;101862.70;1731959;80;99254;-64
2022/03/25 02:10:14;;;;;;;84.42;35.83;;;;;;;4.44;41.75;101866.23;1748241;80;25785;-61
2022/03/25 02:12:41;;;;;;;89.97;36.38;;;;;;;4.42;41.86;101868.00;1740495;81;25882;-62
2022/03/25 02:15:09;;;;;;;89.65;35.00;;;;;;;4.39;41.91;101869.32;1739189;80;98784;-62
2022/03/25 02:17:35;;;;;;;87.60;34.80;;;;;;;4.37;41.97;101870.20;1749498;79;25798;-61
2022/03/25 02:20:23;;;;;;;83.60;34.73;;;;;;;4.34;41.99;101870.20;1738964;80;98937;-61
2022/03/25 02:22:48;;;;;;;85.40;36.30;;;;;;;4.31;42.05;101864.88;1756519;80;25790;-62
2022/03/25 02:25:20;;;;;;;92.00;36.75;;;;;;;4.25;42.06;101860.45;1789535;77;25810;-62
2022/03/25 02:27:47;;;;;;;86.97;37.17;;;;;;;4.20;42.14;101856.90;1770878;79;98952;-63
2022/03/25 02:30:13;;;;;;;89.55;38.00;;;;;;;4.14;42.22;101862.19;1745545;81;25718;-62
2022/03/25 02:32:39;;;;;;;90.15;36.95;;;;;;;4.09;42.30;101859.97;1744018;80;98678;-62
2022/03/25 02:35:07;;;;;;;93.05;36.53;;;;;;;4.04;42.36;101863.94;1748256;80;25787;-62
2022/03/25 02:37:33;;;;;;;94.37;35.95;;;;;;;3.97;42.46;101859.49;1754622;79;26101;-62
2022/03/25 02:39:59;;;;;;;90.17;34.88;;;;;;;3.92;42.52;101866.55;1743590;80;98860;-62
2022/03/25 02:42:25;;;;;;;92.82;36.23;;;;;;;3.87;42.58;101868.30;1791186;78;33160;-62
2022/03/25 02:44:52;;;;;;;95.83;38.85;;;;;;;3.83;42.66;101869.17;1792604;78;99021;-64
2022/03/25 02:47:17;;;;;;;90.30;37.08;;;;;;;3.77;42.72;101864.73;1792838;77;26706;-64
2022/03/25 02:49:43;;;;;;;98.30;38.02;;;;;;;3.73;42.82;101866.03;1790303;78;99385;-64
2022/03/25 02:52:09;;;;;;;95.12;38.73;;;;;;;3.68;42.98;101871.31;1791666;78;29486;-66
2022/03/25 02:54:35;;;;;;;95.25;39.95;;;;;;;3.65;43.07;101869.98;1795156;78;25780;-64
2022/03/25 02:57:01;;;;;;;98.30;38.38;;;;;;;3.63;43.08;101867.76;1788681;78;98593;-65
2022/03/25 02:59:27;;;;;;;99.47;38.90;;;;;;;3.62;43.13;101878.36;1791660;78;36154;-64
2022/03/25 03:01:53;;;;;;;101.60;40.28;;;;;;;3.59;43.25;101872.59;1790061;78;98756;-64
2022/03/25 03:04:19;;;;;;;101.00;41.70;;;;;;;3.57;43.33;101871.70;1792383;78;27477;-64
2022/03/25 03:06:45;;;;;;;105.90;41.60;;;;;;;3.55;43.39;101869.05;1801389;78;33663;-64
2022/03/25 03:09:11;;;;;;;102.82;39.73;;;;;;;3.54;43.48;101871.25;1795210;78;99053;-64
2022/03/25 03:11:37;;;;;;;94.55;38.83;;;;;;;3.52;43.57;101874.33;1791198;78;25711;-64
2022/03/25 03:14:05;;;;;;;100.67;40.12;;;;;;;3.48;43.61;101875.20;1790822;78;98835;-64
2022/03/25 03:16:31;;;;;;;99.40;37.48;;;;;;;3.46;43.71;101878.28;1797200;78;29557;-64
2022/03/25 03:18:58;;;;;;;86.65;36.45;;;;;;;3.44;43.77;101878.70;1788225;78;25684;-64
2022/03/25 03:21:24;;;;;;;99.85;37.48;;;;;;;3.41;43.86;101876.04;1793488;78;98471;-64
2022/03/25 03:23:52;;;;;;;90.03;36.40;;;;;;;3.42;43.93;101879.58;1793828;77;25843;-64
2022/03/25 03:26:19;;;;;;;91.22;36.30;;;;;;;3.41;43.92;101877.36;1795454;78;98745;-65
2022/03/25 03:28:45;;;;;;;83.05;36.23;;;;;;;3.39;44.06;101883.09;1790873;78;27396;-66
2022/03/25 03:31:11;;;;;;;87.78;34.67;;;;;;;3.40;44.16;101883.98;1790688;78;33234;-64
2022/03/25 03:33:37;;;;;;;88.22;34.70;;;;;;;3.39;44.21;101879.56;1793872;78;98700;-63
2022/03/25 03:36:03;;;;;;;77.82;34.58;;;;;;;3.37;44.27;101880.87;1802321;78;26496;-65
2022/03/25 03:38:29;;;;;;;74.72;33.48;;;;;;;3.36;44.40;101882.19;1794182;78;98676;-63
2022/03/25 03:40:55;;;;;;;78.15;31.02;;;;;;;3.35;44.41;101884.39;1791463;77;27504;-64
2022/03/25 03:43:21;;;;;;;87.22;31.05;;;;;;;3.32;44.45;101887.91;1800162;78;25868;-64
2022/03/25 03:45:47;;;;;;;75.22;32.63;;;;;;;3.30;44.52;101884.80;1790600;78;98790;-64
2022/03/25 03:48:13;;;;;;;85.72;31.10;;;;;;;3.28;44.67;101887.87;1789198;78;26392;-64
2022/03/25 03:50:39;;;;;;;96.63;34.75;;;;;;;3.26;44.67;101887.44;1791103;78;98755;-64
2022/03/25 03:53:05;;;;;;;71.80;28.20;;;;;;;3.25;44.80;101887.42;1797819;78;26937;-64
2022/03/25 03:55:31;;;;;;;92.53;31.45;;;;;;;3.23;44.87;101890.50;1789128;78;27163;-63
2022/03/25 03:57:57;;;;;;;67.87;29.98;;;;;;;3.20;44.95;101891.37;1791060;78;98536;-63
2022/03/25 04:00:27;;;;;;;74.40;28.73;;;;;;;3.19;45.11;101894.00;1792395;78;25759;-63
2022/03/25 04:02:54;;;;;;;71.90;26.48;;;;;;;3.17;45.17;101890.02;1795151;77;98841;-64
2022/03/25 04:05:20;;;;;;;72.95;28.77;;;;;;;3.18;45.36;101891.80;1798329;78;27576;-65
2022/03/25 04:07:49;;;;;;;68.90;27.30;;;;;;;3.19;45.42;101886.06;1789446;78;98001;-64
2022/03/25 04:10:19;;;;;;;66.67;27.00;;;;;;;3.18;45.52;101884.28;1787755;78;25771;-65
2022/03/25 04:12:46;;;;;;;66.53;27.03;;;;;;;3.18;45.60;101882.96;1796914;78;26375;-65
2022/03/25 04:15:13;;;;;;;65.42;27.02;;;;;;;3.16;45.68;101886.04;1790819;78;98824;-65
2022/03/25 04:17:41;;;;;;;66.97;27.52;;;;;;;3.14;45.86;101888.67;1792459;77;27398;-65
2022/03/25 04:20:10;;;;;;;68.97;28.45;;;;;;;3.13;45.88;101886.91;1790461;78;98954;-65
2022/03/25 04:22:36;;;;;;;71.55;27.40;;;;;;;3.11;45.94;101887.77;1790808;78;25717;-66
2022/03/25 04:25:05;;;;;;;65.92;27.93;;;;;;;3.11;46.01;101887.77;1795925;78;29253;-66
2022/03/25 04:27:31;;;;;;;73.05;28.52;;;;;;;3.09;46.13;101888.20;1789599;78;98697;-66
2022/03/25 04:29:57;;;;;;;68.40;28.12;;;;;;;3.08;46.23;101895.70;1789961;77;27374;-64
2022/03/25 04:32:23;;;;;;;70.22;26.33;;;;;;;3.04;46.28;101885.52;1796345;78;98860;-64
2022/03/25 04:34:49;;;;;;;73.75;28.67;;;;;;;3.03;46.30;101890.36;1788007;78;30333;-64
2022/03/25 04:37:15;;;;;;;60.45;27.15;;;;;;;2.99;46.42;101890.33;1793776;78;30612;-65
2022/03/25 04:39:40;;;;;;;73.35;26.82;;;;;;;2.97;46.46;101893.40;1792429;78;98675;-65
2022/03/25 04:42:09;;;;;;;69.90;28.50;;;;;;;2.95;46.54;101896.03;1791300;77;27456;-65
2022/03/25 04:44:35;;;;;;;85.07;29.35;;;;;;;2.95;46.71;101898.69;1791829;78;98773;-65
2022/03/25 04:47:03;;;;;;;67.95;28.45;;;;;;;2.94;46.80;101899.56;1791627;78;30901;-65
2022/03/25 04:49:29;;;;;;;67.42;28.05;;;;;;;2.94;46.83;101899.56;1794087;78;25854;-65
2022/03/25 04:51:55;;;;;;;71.02;26.42;;;;;;;2.92;46.93;101899.55;1797120;78;99411;-65
2022/03/25 04:54:21;;;;;;;75.17;28.27;;;;;;;2.89;46.92;101898.64;1785264;78;27453;-65
2022/03/25 04:56:47;;;;;;;65.45;27.50;;;;;;;2.88;47.17;101901.72;1788297;78;98689;-65
2022/03/25 04:59:12;;;;;;;75.57;28.60;;;;;;;2.87;47.31;101901.27;1796825;78;30376;-65
2022/03/25 05:01:38;;;;;;;73.47;29.05;;;;;;;2.86;47.36;101902.15;1795646;78;25764;-67
2022/03/25 05:04:04;;;;;;;63.30;26.65;;;;;;;2.86;47.44;101903.91;1795159;77;98874;-66
2022/03/25 05:06:30;;;;;;;81.50;30.62;;;;;;;2.86;47.47;101903.47;1759643;80;27530;-65
2022/03/25 05:08:56;;;;;;;64.90;27.87;;;;;;;2.86;47.55;101909.20;1794266;78;98708;-66
2022/03/25 05:11:22;;;;;;;67.92;28.52;;;;;;;2.85;47.59;101906.11;1788406;78;30412;-65
2022/03/25 05:13:48;;;;;;;60.88;27.52;;;;;;;2.85;47.64;101911.41;1793889;77;98767;-65
2022/03/25 05:16:14;;;;;;;57.93;25.65;;;;;;;2.85;47.72;101915.37;1788982;78;25878;-66
2022/03/25 05:18:39;;;;;;;71.25;28.17;;;;;;;2.86;47.79;101916.71;1790051;77;27544;-66
2022/03/25 05:21:06;;;;;;;69.40;27.93;;;;;;;2.87;47.97;101910.55;1796067;77;98569;-66
2022/03/25 05:23:33;;;;;;;71.42;29.10;;;;;;;2.90;48.05;101913.22;1789834;77;25769;-66
2022/03/25 05:25:59;;;;;;;71.47;29.20;;;;;;;2.91;48.12;101913.66;1791019;77;98776;-66
2022/03/25 05:28:25;;;;;;;73.30;29.15;;;;;;;2.94;48.21;101910.16;1796880;78;25766;-66
2022/03/25 05:30:51;;;;;;;77.47;29.00;;;;;;;2.96;48.27;101917.67;1794711;78;27481;-66
2022/03/25 05:33:17;;;;;;;64.12;28.87;;;;;;;2.97;48.23;101918.56;1793673;77;98653;-67
2022/03/25 05:35:43;;;;;;;71.07;28.20;;;;;;;2.94;48.35;101920.31;1794410;78;30493;-66
2022/03/25 05:38:09;;;;;;;71.42;30.30;;;;;;;2.98;48.42;101917.69;1786365;77;99203;-65
2022/03/25 05:40:36;;;;;;;64.72;29.12;;;;;;;3.00;48.37;101919.91;1774484;78;26031;-66
2022/03/25 05:43:02;;;;;;;69.05;28.75;;;;;;;3.01;48.49;101925.22;1795346;78;27379;-65
2022/03/25 05:45:28;;;;;;;79.30;30.72;;;;;;;3.02;48.48;101924.34;1794736;78;98692;-65
2022/03/25 05:47:54;;;;;;;71.60;29.27;;;;;;;3.05;48.64;101919.51;1793783;78;26301;-66
2022/03/25 05:50:20;;;;;;;85.67;31.05;;;;;;;3.09;48.71;101925.28;1792263;78;98828;-65
2022/03/25 05:52:47;;;;;;;69.50;29.10;;;;;;;3.15;48.81;101925.33;1797227;78;25915;-66
2022/03/25 05:55:13;;;;;;;74.65;29.07;;;;;;;3.22;48.83;101921.84;1794696;78;27570;-65
2022/03/25 05:57:40;;;;;;;72.70;27.70;;;;;;;3.27;48.79;101921.44;1788823;78;98752;-65
2022/03/25 06:00:14;;;;;;;77.30;29.95;;;;;;;3.33;48.97;101926.78;1792198;78;25849;-65
2022/03/25 06:02:36;;;;;;;62.62;27.35;;;;;;;3.39;49.04;101925.50;1800694;77;98689;-66
2022/03/25 06:05:02;;;;;;;68.05;28.00;;;;;;;3.43;49.05;101929.94;1793885;78;25701;-66
2022/03/25 06:07:37;;;;;;;78.55;28.15;;;;;;;3.48;49.13;101926.88;1791047;78;27352;-66
2022/03/25 06:10:07;;;;;;;74.32;29.50;;;;;;;3.54;49.19;101926.92;1789365;78;98359;-66
2022/03/25 06:12:34;;;;;;;70.40;28.80;;;;;;;3.58;49.21;101927.39;1792938;78;25831;-67
2022/03/25 06:15:00;;;;;;;82.50;30.45;;;;;;;3.63;49.23;101922.55;1790394;77;98830;-66
2022/03/25 06:17:26;;;;;;;69.70;28.70;;;;;;;3.67;49.25;101927.88;1793896;78;25911;-66
2022/03/25 06:19:53;;;;;;;75.80;29.40;;;;;;;3.73;49.29;101934.98;1793688;78;98738;-66
2022/03/25 06:22:19;;;;;;;77.08;29.57;;;;;;;3.77;49.30;101928.81;1797588;78;27184;-66
2022/03/25 06:24:45;;;;;;;69.72;28.75;;;;;;;3.81;49.31;101931.92;1792407;78;25740;-66
2022/03/25 06:27:11;;;;;;;72.25;28.20;;;;;;;3.87;49.27;101930.62;1784166;79;98740;-67
2022/03/25 06:29:38;;;;;;;68.20;27.07;;;;;;;3.93;49.30;101927.11;1789818;79;26381;-66
2022/03/25 06:32:07;;;;;;;71.82;29.15;;;;;;;3.99;49.22;101929.36;1793978;78;98976;-65
2022/03/25 06:34:34;;;;;;;68.15;29.05;;;;;;;4.05;49.29;101933.80;1783553;78;25781;-66
2022/03/25 06:37:01;;;;;;;72.37;27.77;;;;;;;4.11;49.30;101939.13;1785026;79;25709;-64
2022/03/25 06:39:27;;;;;;;67.40;28.25;;;;;;;4.12;49.31;101928.52;1784391;79;98956;-65
2022/03/25 06:41:53;;;;;;;76.28;31.02;;;;;;;4.22;49.29;101934.31;1787732;78;25367;-66
2022/03/25 06:44:19;;;;;;;68.52;30.48;;;;;;;4.30;49.25;101934.77;1790999;78;98766;-66
2022/03/25 06:46:45;;;;;;;82.65;30.60;;;;;;;4.37;49.29;101939.22;1791177;79;33191;-66
2022/03/25 06:49:12;;;;;;;61.15;27.25;;;;;;;4.44;49.26;101938.35;1790612;79;25860;-67
2022/03/25 06:51:39;;;;;;;60.90;24.70;;;;;;;4.55;49.24;101933.95;1780421;79;98600;-67
2022/03/25 06:54:07;;;;;;;82.25;23.65;;;;;;;4.67;49.20;101935.30;1785131;79;25704;-66
2022/03/25 06:56:36;;;;;;;62.35;23.18;;;;;;;4.79;49.12;101941.95;1789229;78;98566;-66
2022/03/25 06:59:04;;;;;;;61.35;22.40;;;;;;;4.91;49.05;101944.18;1790070;79;26069;-66
2022/03/25 07:01:34;;;;;;;60.83;24.10;;;;;;;5.05;48.91;101935.77;1787532;79;25737;-67
2022/03/25 07:04:03;;;;;;;63.68;24.15;;;;;;;5.13;48.78;101942.86;1790569;79;98584;-66
2022/03/25 07:06:30;;;;;;;62.58;23.32;;;;;;;5.23;48.65;101942.37;1793684;79;25697;-68
2022/03/25 07:08:58;;;;;;;59.98;23.60;;;;;;;5.32;48.56;101942.81;1789562;78;98588;-67
2022/03/25 07:11:25;;;;;;;55.35;23.00;;;;;;;5.40;48.45;101944.57;1790441;78;25308;-66
2022/03/25 07:13:53;;;;;;;65.43;22.90;;;;;;;5.47;48.36;101943.67;1790511;79;104115;-66
2022/03/25 07:16:19;;;;;;;56.98;21.90;;;;;;;5.57;48.27;101951.63;1783118;79;25823;-68
2022/03/25 07:18:46;;;;;;;55.43;22.85;;;;;;;5.64;48.18;101952.06;1792541;78;25699;-68
2022/03/25 07:21:12;;;;;;;63.83;23.77;;;;;;;5.69;48.01;101947.17;1793036;78;98686;-66
2022/03/25 07:23:39;;;;;;;59.15;21.70;;;;;;;5.75;47.87;101947.16;1788596;78;26576;-67
2022/03/25 07:26:07;;;;;;;53.75;22.20;;;;;;;5.83;47.78;101953.79;1787658;78;98795;-68
2022/03/25 07:28:34;;;;;;;54.35;22.82;;;;;;;5.91;47.63;101959.13;1790996;79;26112;-67
2022/03/25 07:31:00;;;;;;;56.85;20.45;;;;;;;6.00;47.51;101955.98;1791482;78;25779;-68
2022/03/25 07:33:25;;;;;;;55.38;23.38;;;;;;;6.08;47.42;101955.51;1790203;78;98692;-67
2022/03/25 07:35:51;;;;;;;51.15;22.25;;;;;;;6.14;47.23;101950.61;1791925;79;33733;-66
2022/03/25 07:38:17;;;;;;;53.98;20.82;;;;;;;6.26;47.19;101957.66;1790662;79;98820;-67
2022/03/25 07:40:43;;;;;;;47.78;20.10;;;;;;;6.37;47.06;101955.37;1789589;78;25959;-67
2022/03/25 07:43:09;;;;;;;61.00;24.92;;;;;;;6.50;46.87;101956.20;1782895;79;25764;-66
2022/03/25 07:45:35;;;;;;;46.77;20.23;;;;;;;6.61;46.70;101955.69;1789076;79;98586;-67
2022/03/25 07:48:00;;;;;;;41.65;18.48;;;;;;;6.75;46.53;101967.14;1791937;79;33743;-67
2022/03/25 07:50:27;;;;;;;50.90;19.00;;;;;;;6.89;46.43;101959.50;1790528;78;98981;-67
2022/03/25 07:52:53;;;;;;;56.90;19.55;;;;;;;7.02;46.20;101957.19;1791889;78;25709;-68
2022/03/25 07:55:20;;;;;;;38.88;16.85;;;;;;;7.13;46.00;101957.98;1790556;79;25747;-67
2022/03/25 07:57:47;;;;;;;54.30;18.95;;;;;;;7.24;45.91;101956.11;1789712;78;98623;-67
2022/03/25 08:00:15;;;;;;;49.83;18.98;;;;;;;7.38;45.70;101964.88;1784671;79;26074;-67
2022/03/25 08:02:45;;;;;;;42.50;17.90;;;;;;;7.53;45.44;101968.30;1789121;78;98643;-67
2022/03/25 08:05:13;;;;;;;42.98;18.85;;;;;;;7.67;45.28;101971.71;1787795;79;25731;-67
2022/03/25 08:07:53;;;;;;;46.83;18.75;;;;;;;7.78;45.16;101969.81;1788319;78;25771;-67
2022/03/25 08:10:25;;;;;;;45.65;20.55;;;;;;;7.90;45.04;101966.98;1780962;79;98529;-66
2022/03/25 08:12:56;;;;;;;59.83;21.33;;;;;;;8.04;44.92;101973.05;1785484;78;27127;-69
2022/03/25 08:15:24;;;;;;;47.67;20.00;;;;;;;8.18;44.82;101977.34;1786768;78;98653;-66
2022/03/25 08:18:00;;;;;;;49.65;19.85;;;;;;;8.30;44.74;101970.51;1791484;78;25787;-68
2022/03/25 08:20:33;;;;;;;56.02;19.05;;;;;;;8.40;44.64;101974.86;1781305;78;98931;-66
2022/03/25 08:23:00;;;;;;;59.70;19.98;;;;;;;8.52;44.47;101970.69;1786281;79;28057;-68
2022/03/25 08:28:14;;;;;;;48.30;18.82;;;;;;;8.73;44.34;101969.05;1786539;78;98522;-69
2022/03/25 08:30:41;;;;;;;47.20;20.32;;;;;;;8.87;44.29;101974.64;1789859;79;25765;-66
2022/03/25 08:33:07;;;;;;;53.78;21.05;;;;;;;9.01;44.21;101973.98;1789157;79;97917;-65
2022/03/25 08:35:33;;;;;;;48.30;22.32;;;;;;;9.11;44.19;101974.27;1783676;79;27384;-66
2022/03/25 08:38:00;;;;;;;54.18;23.00;;;;;;;9.22;44.14;101985.67;1796003;78;98733;-67
2022/03/25 08:40:29;;;;;;;61.73;23.67;;;;;;;9.32;44.15;101978.38;1788700;77;26444;-68
2022/03/25 08:42:56;;;;;;;63.45;22.67;;;;;;;9.44;44.18;101980.39;1791612;78;25788;-67
2022/03/25 08:45:23;;;;;;;62.50;24.75;;;;;;;9.53;44.18;101975.33;1794439;79;98775;-66
2022/03/25 08:47:49;;;;;;;49.70;24.05;;;;;;;9.62;44.20;101976.96;1789393;79;26769;-65
2022/03/25 08:50:18;;;;;;;64.82;26.90;;;;;;;9.74;44.26;101978.08;1798090;78;99126;-67
2022/03/25 08:52:46;;;;;;;57.73;27.27;;;;;;;9.90;44.38;101974.19;1791239;79;25727;-67
2022/03/25 08:55:13;;;;;;;70.78;29.85;;;;;;;9.98;44.48;101973.59;1792608;78;26373;-67
2022/03/25 08:57:40;;;;;;;73.47;28.32;;;;;;;10.10;44.59;101976.48;1787167;78;98876;-68
2022/03/25 09:00:12;;;;;;;65.30;30.37;;;;;;;10.21;44.73;101974.95;1791305;78;27565;-70
2022/03/25 09:02:40;;;;;;;62.75;27.80;;;;;;;10.29;44.89;101976.56;1795484;78;99219;-67
2022/03/25 09:05:08;;;;;;;66.77;30.23;;;;;;;10.36;45.04;101978.20;1799056;78;25872;-68
2022/03/25 09:07:37;;;;;;;70.83;30.00;;;;;;;10.41;45.07;101982.09;1795017;78;43643;-67
2022/03/25 09:10:07;;;;;;;68.37;28.90;;;;;;;10.56;45.23;101980.41;1794939;79;99107;-70
2022/03/25 09:12:34;;;;;;;69.72;32.45;;;;;;;10.61;45.53;101978.52;1800920;78;27511;-68
2022/03/25 09:15:01;;;;;;;76.22;32.63;;;;;;;10.64;45.61;101989.63;1792783;78;99043;-68
2022/03/25 09:17:27;;;;;;;66.12;32.40;;;;;;;10.68;45.66;101981.95;1793323;79;25709;-72
2022/03/25 09:19:53;;;;;;;71.67;29.42;;;;;;;10.73;45.66;101979.58;1797440;78;26508;-68
2022/03/25 09:22:20;;;;;;;67.95;30.37;;;;;;;10.84;45.81;101983.81;1792635;78;98839;-69
2022/03/25 09:24:47;;;;;;;68.60;30.75;;;;;;;10.92;45.72;101973.33;1798465;78;27438;-67
2022/03/25 09:27:12;;;;;;;65.42;29.90;;;;;;;10.94;45.77;101978.20;1795349;78;99099;-67
2022/03/25 09:29:39;;;;;;;67.75;31.85;;;;;;;10.98;45.78;101974.98;1796690;78;25793;-67
2022/03/25 09:32:06;;;;;;;62.53;30.23;;;;;;;10.99;45.77;101972.73;1797549;78;99190;-74
2022/03/25 09:37:17;;;;;;;75.47;30.57;;;;;;;11.11;45.72;101978.26;1795575;78;27386;-69
2022/03/25 09:39:44;;;;;;;72.65;30.80;;;;;;;11.18;45.70;101978.08;1798121;78;99135;-69
2022/03/25 09:42:10;;;;;;;69.12;30.55;;;;;;;11.30;45.63;101980.91;1801509;78;25755;-68
2022/03/25 09:44:40;;;;;;;61.37;31.37;;;;;;;11.33;45.50;101978.15;1800603;78;99285;-69
2022/03/25 09:47:06;;;;;;;75.75;32.13;;;;;;;11.34;45.35;101977.23;1802645;78;25736;-70
2022/03/25 09:49:32;;;;;;;71.05;30.23;;;;;;;11.35;45.36;101975.84;1793470;78;27489;-68
2022/03/25 09:51:58;;;;;;;63.98;29.63;;;;;;;11.44;45.36;101975.20;1796774;78;99020;-66
2022/03/25 09:54:26;;;;;;;71.30;31.40;;;;;;;11.47;45.21;101968.41;1800461;78;25796;-66
2022/03/25 09:56:52;;;;;;;65.15;29.00;;;;;;;11.43;45.15;101968.94;1793115;78;99448;-67
2022/03/25 09:59:19;;;;;;;68.22;30.32;;;;;;;11.48;45.16;101982.25;1798469;78;26292;-67
2022/03/25 10:01:45;;;;;;;61.37;29.57;;;;;;;11.52;45.15;101974.53;1801448;78;27410;-66
2022/03/25 10:04:47;;;;;;;73.67;30.50;;;;;;;11.61;45.07;101983.69;1798827;78;98942;-68
2022/03/25 10:07:34;;;;;;;66.82;31.33;;;;;;;11.66;45.01;101981.77;1802063;78;26230;-68
2022/03/25 10:10:15;;;;;;;70.12;29.12;;;;;;;11.72;44.92;101972.20;1796054;78;99063;-68
2022/03/25 10:12:45;;;;;;;73.47;29.32;;;;;;;11.76;44.83;101967.63;1797506;78;25854;-69
2022/03/25 10:15:21;;;;;;;77.37;30.23;;;;;;;11.85;44.88;101966.07;1799414;78;99155;-68
2022/03/25 10:18:01;;;;;;;58.42;27.02;;;;;;;11.94;44.63;101964.02;1795606;78;26287;-68
2022/03/25 10:20:32;;;;;;;65.32;26.75;;;;;;;11.95;44.56;101964.89;1798268;78;99583;-67
2022/03/25 10:23:15;;;;;;;54.15;26.62;;;;;;;11.98;44.50;101959.43;1794860;78;36106;-68
2022/03/25 10:25:59;;;;;;;61.18;29.20;;;;;;;11.99;44.40;101963.42;1792705;78;25803;-68
2022/03/25 10:28:37;;;;;;;62.50;26.55;;;;;;;12.05;44.38;101960.14;1792866;78;98834;-68
2022/03/25 10:31:11;;;;;;;59.50;27.02;;;;;;;12.12;44.19;101958.58;1787700;78;26191;-67
2022/03/25 10:33:47;;;;;;;54.13;25.12;;;;;;;12.22;44.06;101965.45;1793565;78;98989;-68
2022/03/25 10:36:17;;;;;;;64.70;26.73;;;;;;;12.32;43.92;101960.69;1802584;78;27008;-68
2022/03/25 10:38:54;;;;;;;64.30;26.95;;;;;;;12.38;43.94;101951.09;1791429;78;99250;-68
2022/03/25 10:41:24;;;;;;;59.83;28.07;;;;;;;12.53;43.79;101952.44;1800008;78;27358;-68
2022/03/25 10:44:02;;;;;;;55.67;26.65;;;;;;;12.57;43.42;101948.72;1781272;78;25702;-69
2022/03/25 10:46:34;;;;;;;64.22;25.88;;;;;;;12.63;43.34;101953.45;1795930;78;98851;-68
2022/03/25 10:49:05;;;;;;;53.52;26.65;;;;;;;12.66;43.35;101952.48;1790552;78;25744;-70
2022/03/25 10:51:34;;;;;;;74.45;27.30;;;;;;;12.73;43.36;101945.09;1801005;77;98930;-69
2022/03/25 10:54:05;;;;;;;57.13;25.35;;;;;;;12.87;43.37;101947.77;1806707;77;27535;-70
2022/03/25 10:56:49;;;;;;;;;;;;;;;12.98;43.04;101937.53;1804337;77;99253;-72
2022/03/25 10:59:36;;;;;;;69.45;28.80;;;;;;;13.11;42.93;101943.36;1810545;77;26341;-69
2022/03/25 11:02:06;;;;;;;63.90;28.15;;;;;;;13.20;42.77;101941.73;1805356;77;27872;-69
2022/03/25 11:04:34;;;;;;;58.05;26.68;;;;;;;13.26;42.68;101936.14;1805646;77;98839;-69
2022/03/25 11:07:01;;;;;;;74.10;30.55;;;;;;;13.33;42.54;101936.35;1807429;77;28408;-69
2022/03/25 11:09:29;;;;;;;61.83;29.10;;;;;;;13.36;42.28;101942.56;1805731;77;98939;-68
2022/03/25 11:11:57;;;;;;;67.87;27.87;;;;;;;13.38;41.87;101930.81;1800009;78;26544;-68
2022/03/25 11:14:24;;;;;;;56.10;24.45;;;;;;;13.37;41.89;101931.73;1803525;78;99127;-69
2022/03/25 11:16:59;;;;;;;74.97;27.17;;;;;;;13.39;41.59;101941.11;1763137;80;25698;-68
2022/03/25 11:19:27;;;;;;;54.20;25.82;;;;;;;13.38;40.99;101946.09;1757092;80;27367;-67
2022/03/25 11:21:54;;;;;;;58.48;24.92;;;;;;;13.33;41.16;101939.05;1761119;80;99021;-66
2022/03/25 11:24:46;;;;;;;51.30;24.80;;;;;;;13.41;40.60;101935.21;1762312;80;26128;-66